Time;durP1;ratioP1;P1;durP2;ratioP2;P2;SDS_P1;SDS_P2;PMS_P1;PMS_P2;Temp;Humidity;BMP_temperature;BMP_pressure;BME280_temperature;BME280_humidity;BME280_pressure;Samples;Min_cycle;Max_cycle;Signal;HPM_P1;HPM_P2
2022/09/18 00:00:50;;;;;;;;;;;10.20;99.90;;;;;;5059619;28;19922;-81
2022/09/18 00:03:16;;;;;;;;;;;10.20;99.90;;;;;;5067235;28;19916;-80
2022/09/18 00:05:42;;;;;;;;;;;10.10;99.90;;;;;;5070114;28;20430;-80
2022/09/18 00:08:08;;;;;;;;;;;10.10;99.90;;;;;;5063950;28;19955;-80
2022/09/18 00:10:40;;;;;;;;;;;10.20;99.90;;;;;;5069770;28;19905;-81
2022/09/18 00:13:06;;;;;;;;;;;10.20;99.90;;;;;;5066560;28;20346;-81
2022/09/18 00:15:32;;;;;;;;;;;10.20;99.90;;;;;;5067884;28;19904;-82
2022/09/18 00:17:57;;;;;;;;;;;10.20;99.90;;;;;;5065158;28;19963;-80
2022/09/18 00:20:23;;;;;;;;;;;10.20;99.90;;;;;;5063196;28;19904;-82
2022/09/18 00:22:49;;;;;;;;;;;10.20;99.90;;;;;;5064183;28;19920;-81
2022/09/18 00:25:14;;;;;;;;;;;10.30;99.90;;;;;;5061286;28;20013;-81
2022/09/18 00:27:40;;;;;;;;;;;10.20;99.90;;;;;;5063137;28;20441;-81
2022/09/18 00:30:06;;;;;;;;;;;10.30;99.90;;;;;;5066566;28;19965;-82
2022/09/18 00:32:32;;;;;;;;;;;10.30;99.90;;;;;;5066922;28;20272;-81
2022/09/18 00:34:58;;;;;;;;;;;10.30;99.90;;;;;;5042831;28;19947;-82
2022/09/18 00:37:23;;;;;;;;;;;10.30;99.90;;;;;;5060501;28;19913;-80
2022/09/18 00:39:49;;;;;;;;;;;10.30;99.90;;;;;;5059411;28;19911;-80
2022/09/18 00:42:18;;;;;;;;;;;10.30;99.90;;;;;;5061142;28;20388;-81
2022/09/18 00:44:44;;;;;;;;;;;10.30;99.90;;;;;;5042597;28;19930;-81
2022/09/18 00:47:10;;;;;;;;;;;10.30;99.90;;;;;;5060644;28;19959;-80
2022/09/18 00:49:37;;;;;;;;;;;10.30;99.90;;;;;;5066918;28;20007;-80
2022/09/18 00:52:03;;;;;;;;;;;10.30;99.90;;;;;;5074323;28;19916;-79
2022/09/18 00:54:37;;;;;;;;;;;10.30;99.90;;;;;;5049143;28;19957;-81
2022/09/18 00:57:11;;;;;;;;;;;10.30;99.90;;;;;;5061104;28;20001;-82
2022/09/18 00:59:39;;;;;;;;;;;10.20;99.90;;;;;;5061240;28;19993;-82
2022/09/18 01:02:04;;;;;;;;;;;10.20;99.90;;;;;;5044521;28;19911;-83
2022/09/18 01:04:31;;;;;;;;;;;10.20;99.90;;;;;;5062529;28;19912;-81
2022/09/18 01:07:08;;;;;;;;;;;10.20;99.90;;;;;;5044567;28;19908;-82
2022/09/18 01:09:47;;;;;;;;;;;10.20;99.90;;;;;;5044575;28;19931;-82
2022/09/18 01:12:32;;;;;;;;;;;10.20;99.90;;;;;;5043736;28;20000;-80
2022/09/18 01:15:07;;;;;;;;;;;10.20;99.90;;;;;;5048365;28;19920;-81
2022/09/18 01:18:03;;;;;;;;;;;10.30;99.90;;;;;;5037431;28;19917;-82
2022/09/18 01:20:34;;;;;;;;;;;10.20;99.90;;;;;;4989524;28;19898;-83
2022/09/18 01:23:03;;;;;;;;;;;10.20;99.90;;;;;;5062282;28;20022;-80
2022/09/18 01:25:36;;;;;;;;;;;10.20;99.90;;;;;;5062382;28;19917;-81
2022/09/18 01:28:01;;;;;;;;;;;10.30;99.90;;;;;;5061563;28;19907;-82
2022/09/18 01:30:28;;;;;;;;;;;10.30;99.90;;;;;;5067796;28;19976;-81
2022/09/18 01:33:02;;;;;;;;;;;10.30;99.90;;;;;;5060121;28;19931;-81
2022/09/18 01:35:35;;;;;;;;;;;10.30;99.90;;;;;;5041333;28;19920;-82
2022/09/18 01:38:19;;;;;;;;;;;10.30;99.90;;;;;;5042250;28;20382;-82
2022/09/18 01:40:57;;;;;;;;;;;10.40;99.90;;;;;;5027162;28;19909;-81
2022/09/18 01:43:24;;;;;;;;;;;10.40;99.90;;;;;;5042632;28;20054;-81
2022/09/18 01:45:52;;;;;;;;;;;10.50;99.90;;;;;;5060910;28;20317;-83
2022/09/18 01:48:26;;;;;;;;;;;10.50;99.90;;;;;;5042248;28;19967;-81
2022/09/18 01:50:55;;;;;;;;;;;10.50;99.90;;;;;;5037625;28;19908;-81
2022/09/18 01:53:24;;;;;;;;;;;10.50;99.90;;;;;;5024060;28;20312;-81
2022/09/18 01:55:55;;;;;;;;;;;10.50;99.90;;;;;;5040802;28;19909;-81
2022/09/18 01:58:22;;;;;;;;;;;10.50;99.90;;;;;;5058283;28;20261;-81
2022/09/18 02:00:51;;;;;;;;;;;10.50;99.90;;;;;;5024701;28;19936;-80
2022/09/18 02:03:30;;;;;;;;;;;10.60;99.90;;;;;;5041452;28;19975;-81
2022/09/18 02:05:59;;;;;;;;;;;10.60;99.90;;;;;;5045099;28;19944;-82
2022/09/18 02:08:38;;;;;;;;;;;10.60;99.90;;;;;;5033404;28;19909;-82
2022/09/18 02:11:09;;;;;;;;;;;10.60;99.90;;;;;;5049989;28;19904;-82
2022/09/18 02:13:43;;;;;;;;;;;10.60;99.90;;;;;;5050368;28;19908;-79
2022/09/18 02:16:13;;;;;;;;;;;10.50;99.90;;;;;;5050336;28;19928;-81
2022/09/18 02:18:41;;;;;;;;;;;10.60;99.90;;;;;;5050474;28;19909;-81
2022/09/18 02:21:10;;;;;;;;;;;10.60;99.90;;;;;;5068914;28;19908;-80
2022/09/18 02:23:37;;;;;;;;;;;10.60;99.90;;;;;;5050498;28;19962;-80
2022/09/18 02:26:06;;;;;;;;;;;10.60;99.90;;;;;;5044020;28;19905;-80
2022/09/18 02:28:33;;;;;;;;;;;10.60;99.90;;;;;;5049715;28;19912;-82
2022/09/18 02:30:59;;;;;;;;;;;10.60;99.90;;;;;;5039589;28;20313;-81
2022/09/18 02:33:28;;;;;;;;;;;10.50;99.90;;;;;;5058565;28;19961;-81
2022/09/18 02:35:56;;;;;;;;;;;10.50;99.90;;;;;;5047820;28;20284;-80
2022/09/18 02:38:28;;;;;;;;;;;10.50;99.90;;;;;;5068856;28;19908;-80
2022/09/18 02:41:01;;;;;;;;;;;10.50;99.90;;;;;;5050919;28;19909;-80
2022/09/18 02:43:52;;;;;;;;;;;10.40;99.90;;;;;;5050429;28;19916;-79
2022/09/18 02:46:33;;;;;;;;;;;10.40;99.90;;;;;;5043768;28;19920;-81
2022/09/18 02:49:17;;;;;;;;;;;10.40;99.90;;;;;;5041952;28;19979;-79
2022/09/18 02:51:51;;;;;;;;;;;10.40;99.90;;;;;;5042979;28;19908;-82
2022/09/18 02:54:20;;;;;;;;;;;10.40;99.90;;;;;;5027956;28;20338;-79
2022/09/18 02:56:53;;;;;;;;;;;10.30;99.90;;;;;;5044791;28;19995;-80
2022/09/18 02:59:19;;;;;;;;;;;10.40;99.90;;;;;;5044030;28;19909;-80
2022/09/18 03:01:52;;;;;;;;;;;10.30;99.90;;;;;;5040042;28;19905;-81
2022/09/18 03:04:21;;;;;;;;;;;10.30;99.90;;;;;;5039593;28;19970;-80
2022/09/18 03:06:56;;;;;;;;;;;10.40;99.90;;;;;;5041697;28;19908;-79
2022/09/18 03:09:23;;;;;;;;;;;10.40;99.90;;;;;;5049172;28;20010;-80
2022/09/18 03:11:49;;;;;;;;;;;10.40;99.90;;;;;;5039711;28;20008;-80
2022/09/18 03:14:17;;;;;;;;;;;10.40;99.90;;;;;;5056805;28;19920;-81
2022/09/18 03:16:44;;;;;;;;;;;10.40;99.90;;;;;;5038947;28;20332;-80
2022/09/18 03:19:10;;;;;;;;;;;10.40;99.90;;;;;;5049820;28;19919;-79
2022/09/18 03:21:36;;;;;;;;;;;10.40;99.90;;;;;;5051224;28;19893;-81
2022/09/18 03:24:05;;;;;;;;;;;10.40;99.90;;;;;;5050588;28;19913;-79
2022/09/18 03:26:33;;;;;;;;;;;10.40;99.90;;;;;;5049217;28;19917;-78
2022/09/18 03:28:59;;;;;;;;;;;10.40;99.90;;;;;;5051116;28;19951;-80
2022/09/18 03:31:28;;;;;;;;;;;10.40;99.90;;;;;;5038385;28;20392;-81
2022/09/18 03:33:54;;;;;;;;;;;10.40;99.90;;;;;;5038774;28;20015;-79
2022/09/18 03:36:20;;;;;;;;;;;10.30;99.90;;;;;;5039337;28;19905;-81
2022/09/18 03:38:48;;;;;;;;;;;10.30;99.90;;;;;;5052699;28;19939;-81
2022/09/18 03:41:13;;;;;;;;;;;10.20;99.90;;;;;;5040950;28;19905;-81
2022/09/18 03:43:41;;;;;;;;;;;10.20;99.90;;;;;;5043938;28;20391;-79
2022/09/18 03:46:09;;;;;;;;;;;10.20;99.90;;;;;;5063796;28;19959;-80
2022/09/18 03:48:34;;;;;;;;;;;10.20;99.90;;;;;;5047423;28;19908;-80
2022/09/18 03:51:01;;;;;;;;;;;10.20;99.90;;;;;;5052734;28;19927;-81
2022/09/18 03:53:27;;;;;;;;;;;10.20;99.90;;;;;;5055498;28;19908;-80
2022/09/18 03:56:09;;;;;;;;;;;10.10;99.90;;;;;;5072166;28;19905;-79
2022/09/18 03:58:54;;;;;;;;;;;10.10;99.90;;;;;;5067109;28;19938;-82
2022/09/18 04:01:33;;;;;;;;;;;10.10;99.90;;;;;;5048492;28;19908;-81
2022/09/18 04:04:19;;;;;;;;;;;10.10;99.90;;;;;;5061701;28;19920;-81
2022/09/18 04:07:07;;;;;;;;;;;10.10;99.90;;;;;;5061618;28;19913;-81
2022/09/18 04:09:51;;;;;;;;;;;10.10;99.90;;;;;;5060865;28;19915;-80
2022/09/18 04:12:17;;;;;;;;;;;10.10;99.90;;;;;;5031662;28;19916;-81
2022/09/18 04:14:46;;;;;;;;;;;10.10;99.90;;;;;;5044171;28;19988;-81
2022/09/18 04:17:12;;;;;;;;;;;10.00;99.90;;;;;;5026279;28;19909;-79
2022/09/18 04:19:39;;;;;;;;;;;10.00;99.90;;;;;;5042050;28;19999;-81
2022/09/18 04:22:08;;;;;;;;;;;10.00;99.90;;;;;;5042286;28;19912;-81
2022/09/18 04:24:38;;;;;;;;;;;10.00;99.90;;;;;;5026782;28;19934;-79
2022/09/18 04:27:04;;;;;;;;;;;10.00;99.90;;;;;;5045160;28;19916;-80
2022/09/18 04:29:30;;;;;;;;;;;10.00;99.90;;;;;;5051803;28;19954;-82
2022/09/18 04:31:56;;;;;;;;;;;10.00;99.90;;;;;;5045304;28;19913;-81
2022/09/18 04:34:23;;;;;;;;;;;10.00;99.90;;;;;;5026490;28;20265;-80
2022/09/18 04:36:49;;;;;;;;;;;10.00;99.90;;;;;;5042595;28;19967;-82
2022/09/18 04:39:15;;;;;;;;;;;10.00;99.90;;;;;;5042449;28;20011;-81
2022/09/18 04:41:44;;;;;;;;;;;10.00;99.90;;;;;;5042392;28;19931;-81
2022/09/18 04:44:09;;;;;;;;;;;10.00;99.90;;;;;;5043127;28;20310;-80
2022/09/18 04:46:36;;;;;;;;;;;10.00;99.90;;;;;;5048560;28;19939;-82
2022/09/18 04:49:02;;;;;;;;;;;10.00;99.90;;;;;;5048978;28;19893;-82
2022/09/18 04:51:29;;;;;;;;;;;10.10;99.90;;;;;;5049211;28;19917;-81
2022/09/18 04:53:54;;;;;;;;;;;10.10;99.90;;;;;;5042269;28;19962;-81
2022/09/18 04:56:21;;;;;;;;;;;10.20;99.90;;;;;;5041864;28;19916;-81
2022/09/18 04:58:50;;;;;;;;;;;10.20;99.90;;;;;;5041887;28;19908;-80
2022/09/18 05:01:15;;;;;;;;;;;10.30;99.90;;;;;;5042097;28;19923;-81
2022/09/18 05:03:41;;;;;;;;;;;10.30;99.90;;;;;;5060578;28;19909;-82
2022/09/18 05:06:12;;;;;;;;;;;10.40;99.90;;;;;;5043452;28;19924;-80
2022/09/18 05:08:38;;;;;;;;;;;10.50;99.90;;;;;;5025427;28;19909;-83
2022/09/18 05:11:04;;;;;;;;;;;10.50;99.90;;;;;;5042416;28;20009;-81
2022/09/18 05:13:33;;;;;;;;;;;10.60;99.90;;;;;;5044378;28;19909;-83
2022/09/18 05:16:11;;;;;;;;;;;10.60;99.90;;;;;;5045795;28;19962;-82
2022/09/18 05:18:39;;;;;;;;;;;10.60;99.90;;;;;;5042522;28;19999;-82
2022/09/18 05:21:05;;;;;;;;;;;10.60;99.90;;;;;;5044043;28;19955;-83
2022/09/18 05:23:33;;;;;;;;;;;10.70;99.90;;;;;;5044828;28;19912;-83
2022/09/18 05:25:59;;;;;;;;;;;10.70;99.90;;;;;;5044172;28;20395;-82
2022/09/18 05:28:25;;;;;;;;;;;10.80;99.90;;;;;;5044349;28;19970;-84
2022/09/18 05:30:56;;;;;;;;;;;10.80;99.90;;;;;;5051477;28;19954;-84
2022/09/18 05:33:22;;;;;;;;;;;10.90;99.90;;;;;;5047054;28;19963;-82
2022/09/18 05:35:51;;;;;;;;;;;10.90;99.90;;;;;;5041653;28;20288;-82
2022/09/18 05:38:19;;;;;;;;;;;10.90;99.90;;;;;;5035476;28;20296;-83
2022/09/18 05:40:45;;;;;;;;;;;11.00;99.90;;;;;;5034424;28;19909;-82
2022/09/18 05:43:11;;;;;;;;;;;11.00;99.90;;;;;;5053731;28;20014;-82
2022/09/18 05:45:37;;;;;;;;;;;11.00;99.90;;;;;;5055484;23;19992;-82
2022/09/18 05:48:13;;;;;;;;;;;11.10;99.90;;;;;;5077049;28;19912;-84
2022/09/18 05:50:41;;;;;;;;;;;11.10;99.90;;;;;;5077893;28;19909;-82
2022/09/18 05:53:12;;;;;;;;;;;11.30;99.90;;;;;;5079702;28;19984;-86
2022/09/18 05:55:44;;;;;;;;;;;11.30;99.90;;;;;;5075196;28;19964;-83
2022/09/18 05:58:11;;;;;;;;;;;11.40;99.90;;;;;;5061708;28;19908;-82
2022/09/18 06:00:37;;;;;;;;;;;11.40;99.90;;;;;;5062127;28;19896;-82
2022/09/18 06:03:10;;;;;;;;;;;11.40;99.90;;;;;;5062038;28;19919;-81
2022/09/18 06:05:37;;;;;;;;;;;11.50;99.90;;;;;;5062202;28;19988;-80
2022/09/18 06:08:07;;;;;;;;;;;11.50;99.90;;;;;;5079349;28;19904;-81
2022/09/18 06:10:36;;;;;;;;;;;11.50;99.90;;;;;;5061756;28;19904;-81
2022/09/18 06:13:11;;;;;;;;;;;11.60;99.90;;;;;;5052769;28;19946;-82
2022/09/18 06:15:45;;;;;;;;;;;11.60;99.90;;;;;;5062342;28;19967;-83
2022/09/18 06:18:13;;;;;;;;;;;11.60;99.90;;;;;;5045248;28;19905;-81
2022/09/18 06:20:40;;;;;;;;;;;11.70;99.90;;;;;;5060092;28;19900;-80
2022/09/18 06:23:06;;;;;;;;;;;11.80;99.90;;;;;;5061620;28;19908;-82
2022/09/18 06:25:41;;;;;;;;;;;11.90;99.90;;;;;;5060276;28;19917;-82
2022/09/18 06:28:07;;;;;;;;;;;11.80;99.90;;;;;;5046987;28;20003;-81
2022/09/18 06:30:34;;;;;;;;;;;11.80;99.90;;;;;;5075587;28;19901;-79
2022/09/18 06:33:03;;;;;;;;;;;11.80;99.90;;;;;;5061411;28;19916;-80
2022/09/18 06:35:29;;;;;;;;;;;11.80;99.90;;;;;;5050841;28;19913;-81
2022/09/18 06:37:58;;;;;;;;;;;11.90;99.90;;;;;;5067665;28;19901;-83
2022/09/18 06:40:35;;;;;;;;;;;11.80;99.90;;;;;;5049293;28;19901;-83
2022/09/18 06:43:15;;;;;;;;;;;11.90;99.90;;;;;;5054164;28;19909;-83
2022/09/18 06:45:51;;;;;;;;;;;11.90;99.90;;;;;;5062007;28;19952;-85
2022/09/18 06:48:18;;;;;;;;;;;12.00;99.90;;;;;;5060783;28;19968;-84
2022/09/18 06:50:43;;;;;;;;;;;12.00;99.90;;;;;;5060577;28;19977;-84
2022/09/18 06:53:09;;;;;;;;;;;12.00;99.90;;;;;;5058101;28;19909;-85
2022/09/18 06:55:39;;;;;;;;;;;12.10;99.90;;;;;;5043010;28;19926;-87
2022/09/18 06:58:05;;;;;;;;;;;12.10;99.90;;;;;;5056306;28;20372;-84
2022/09/18 07:00:30;;;;;;;;;;;12.20;99.90;;;;;;5036852;28;19905;-85
2022/09/18 07:02:57;;;;;;;;;;;12.30;99.90;;;;;;5054355;28;20368;-84
2022/09/18 07:06:01;;;;;;;;;;;12.50;99.90;;;;;;5040980;28;19908;-85
2022/09/18 07:08:39;;;;;;;;;;;12.60;99.90;;;;;;5038513;28;19899;-86
2022/09/18 07:11:25;;;;;;;;;;;12.70;99.90;;;;;;5063645;28;19959;-86
2022/09/18 07:13:53;;;;;;;;;;;12.70;99.90;;;;;;5074568;28;19972;-85
2022/09/18 07:16:18;;;;;;;;;;;12.80;99.90;;;;;;5047916;28;19905;-83
2022/09/18 07:18:46;;;;;;;;;;;12.90;99.90;;;;;;5045865;28;19912;-82
2022/09/18 07:21:12;;;;;;;;;;;13.00;99.90;;;;;;5062824;28;19980;-83
2022/09/18 07:23:39;;;;;;;;;;;13.10;99.90;;;;;;5038789;28;19928;-86
2022/09/18 07:26:05;;;;;;;;;;;13.20;99.90;;;;;;5045507;28;19909;-83
2022/09/18 07:28:32;;;;;;;;;;;13.20;99.90;;;;;;5042107;28;19909;-85
2022/09/18 07:31:14;;;;;;;;;;;13.00;99.90;;;;;;5041966;28;19921;-85
2022/09/18 07:33:41;;;;;;;;;;;13.00;99.90;;;;;;5038588;28;19913;-85
2022/09/18 07:36:13;;;;;;;;;;;13.00;99.90;;;;;;5037985;28;19901;-86
2022/09/18 07:38:41;;;;;;;;;;;13.00;99.90;;;;;;5054567;28;19909;-83
2022/09/18 07:41:07;;;;;;;;;;;13.00;99.90;;;;;;5038206;28;19905;-86
2022/09/18 07:43:33;;;;;;;;;;;13.10;99.90;;;;;;5039422;28;19935;-87
2022/09/18 07:45:59;;;;;;;;;;;13.30;99.90;;;;;;5035570;28;19972;-84
2022/09/18 07:48:28;;;;;;;;;;;13.40;99.90;;;;;;5035656;28;19909;-84
2022/09/18 07:51:04;;;;;;;;;;;13.40;99.90;;;;;;5038922;28;19909;-83
2022/09/18 07:53:32;;;;;;;;;;;13.40;99.90;;;;;;5043297;28;19924;-83
2022/09/18 07:55:58;;;;;;;;;;;13.40;99.90;;;;;;5041966;28;19940;-83
2022/09/18 07:58:25;;;;;;;;;;;13.30;99.90;;;;;;5043593;28;19955;-84
2022/09/18 08:01:04;;;;;;;;;;;13.10;99.90;;;;;;5042175;28;19913;-81
2022/09/18 08:03:32;;;;;;;;;;;13.00;99.90;;;;;;5045672;28;19909;-84
2022/09/18 08:06:09;;;;;;;;;;;13.10;99.90;;;;;;5063105;28;19916;-82
2022/09/18 08:08:38;;;;;;;;;;;13.10;99.90;;;;;;5029980;28;19956;-82
2022/09/18 08:11:22;;;;;;;;;;;13.10;99.90;;;;;;5062643;28;19961;-83
2022/09/18 08:14:26;;;;;;;;;;;13.20;99.90;;;;;;5021689;28;19902;-82
2022/09/18 08:17:11;;;;;;;;;;;13.30;99.90;;;;;;5022222;28;19976;-83
2022/09/18 08:19:57;;;;;;;;;;;13.40;99.90;;;;;;5051607;28;19932;-82
2022/09/18 08:22:42;;;;;;;;;;;13.70;99.90;;;;;;5063616;28;19955;-83
2022/09/18 08:25:08;;;;;;;;;;;13.80;99.90;;;;;;5045469;28;19928;-84
2022/09/18 08:27:34;;;;;;;;;;;13.90;99.90;;;;;;5035254;28;19913;-85
2022/09/18 08:30:00;;;;;;;;;;;14.00;99.90;;;;;;5060105;28;19901;-83
2022/09/18 08:32:28;;;;;;;;;;;13.90;99.90;;;;;;5045857;28;19897;-83
2022/09/18 08:34:54;;;;;;;;;;;13.90;99.90;;;;;;5044564;28;19932;-84
2022/09/18 08:37:21;;;;;;;;;;;13.90;99.90;;;;;;5035951;28;19897;-86
2022/09/18 08:40:07;;;;;;;;;;;14.00;99.90;;;;;;5048252;28;19954;-87
2022/09/18 08:42:41;;;;;;;;;;;14.10;99.90;;;;;;5056995;28;19979;-84
2022/09/18 08:45:14;;;;;;;;;;;14.30;99.90;;;;;;5061178;28;19935;-84
2022/09/18 08:47:43;;;;;;;;;;;14.50;99.90;;;;;;5058314;28;19917;-83
2022/09/18 08:50:14;;;;;;;;;;;14.60;99.90;;;;;;5055301;28;19904;-85
2022/09/18 08:52:43;;;;;;;;;;;14.60;99.90;;;;;;5060430;28;19896;-82
2022/09/18 08:55:18;;;;;;;;;;;14.70;99.90;;;;;;5061749;28;19923;-83
2022/09/18 08:58:29;;;;;;;;;;;14.80;99.90;;;;;;5019880;28;19944;-81
2022/09/18 09:00:59;;;;;;;;;;;14.90;99.90;;;;;;5070825;28;19919;-80
2022/09/18 09:03:52;;;;;;;;;;;15.20;99.90;;;;;;5062925;28;19942;-83
2022/09/18 09:06:31;;;;;;;;;;;16.00;99.90;;;;;;5063176;28;19900;-82
2022/09/18 09:08:56;;;;;;;;;;;16.70;99.90;;;;;;5046394;28;19968;-84
2022/09/18 09:11:26;;;;;;;;;;;17.50;99.90;;;;;;5054659;28;19912;-80
2022/09/18 09:13:52;;;;;;;;;;;17.00;99.90;;;;;;5042887;28;19924;-86
2022/09/18 09:16:34;;;;;;;;;;;17.40;99.70;;;;;;5036084;28;19905;-83
2022/09/18 09:19:01;;;;;;;;;;;17.80;99.10;;;;;;5039569;28;19897;-85
2022/09/18 09:21:40;;;;;;;;;;;17.60;99.20;;;;;;5057982;28;19905;-86
2022/09/18 09:24:20;;;;;;;;;;;17.20;99.50;;;;;;5058087;28;19920;-84
2022/09/18 09:27:34;;;;;;;;;;;16.70;99.90;;;;;;5031723;28;19896;-84
2022/09/18 09:30:32;;;;;;;;;;;18.10;99.10;;;;;;5026089;28;19912;-83
2022/09/18 09:33:22;;;;;;;;;;;19.80;96.80;;;;;;5079634;28;19931;-82
2022/09/18 09:36:14;;;;;;;;;;;20.50;95.20;;;;;;5062250;28;19900;-85
2022/09/18 09:38:59;;;;;;;;;;;21.10;93.80;;;;;;5062037;28;19940;-81
2022/09/18 09:41:25;;;;;;;;;;;20.60;93.50;;;;;;5062675;28;19900;-83
2022/09/18 09:43:57;;;;;;;;;;;19.80;94.50;;;;;;5062546;28;19996;-83
2022/09/18 09:46:27;;;;;;;;;;;18.80;94.30;;;;;;5062561;28;19905;-82
2022/09/18 09:49:04;;;;;;;;;;;18.40;95.40;;;;;;5061715;28;19924;-83
2022/09/18 09:51:48;;;;;;;;;;;18.10;96.10;;;;;;5061978;28;19917;-84
2022/09/18 09:54:13;;;;;;;;;;;17.90;96.50;;;;;;5061691;28;19976;-85
2022/09/18 09:56:42;;;;;;;;;;;17.60;96.90;;;;;;5061782;28;19919;-84
2022/09/18 09:59:15;;;;;;;;;;;17.00;96.90;;;;;;5062356;28;19905;-84
2022/09/18 10:02:18;;;;;;;;;;;16.50;97.60;;;;;;5061610;28;19900;-87
2022/09/18 10:05:03;;;;;;;;;;;17.40;97.40;;;;;;5059532;28;19917;-84
2022/09/18 10:07:33;;;;;;;;;;;18.50;95.80;;;;;;5059925;28;19912;-85
2022/09/18 10:10:02;;;;;;;;;;;17.70;95.80;;;;;;5044065;28;19920;-85
2022/09/18 10:12:50;;;;;;;;;;;16.70;96.50;;;;;;5053059;28;19909;-87
2022/09/18 10:15:23;;;;;;;;;;;16.10;97.50;;;;;;5054746;28;19968;-86
2022/09/18 10:17:51;;;;;;;;;;;16.10;97.70;;;;;;5055890;28;19909;-88
2022/09/18 10:20:21;;;;;;;;;;;16.90;96.90;;;;;;5057923;28;19911;-83
2022/09/18 10:22:47;;;;;;;;;;;17.90;95.90;;;;;;5037421;28;19909;-86
2022/09/18 10:25:19;;;;;;;;;;;18.60;95.10;;;;;;5034864;28;19940;-87
2022/09/18 10:27:45;;;;;;;;;;;19.20;94.00;;;;;;5049961;28;20375;-87
2022/09/18 10:30:12;;;;;;;;;;;19.80;94.00;;;;;;5033104;28;20003;-87
2022/09/18 10:32:44;;;;;;;;;;;20.70;93.10;;;;;;5051868;28;19956;-87
2022/09/18 10:35:43;;;;;;;;;;;21.20;92.60;;;;;;5045061;28;19909;-86
2022/09/18 10:38:31;;;;;;;;;;;21.00;92.30;;;;;;5061047;28;19905;-83
2022/09/18 10:41:10;;;;;;;;;;;19.90;93.10;;;;;;5061346;28;19920;-83
2022/09/18 10:43:50;;;;;;;;;;;19.90;93.80;;;;;;5060928;28;19912;-82
2022/09/18 10:46:21;;;;;;;;;;;19.60;93.20;;;;;;5061818;28;19956;-82
2022/09/18 10:48:47;;;;;;;;;;;18.80;93.90;;;;;;5077609;28;19934;-83
2022/09/18 10:51:16;;;;;;;;;;;18.10;94.90;;;;;;5058465;28;19928;-83
2022/09/18 10:53:44;;;;;;;;;;;17.80;95.30;;;;;;5061667;28;19913;-83
2022/09/18 10:56:23;;;;;;;;;;;17.40;96.00;;;;;;5047225;28;19897;-84
2022/09/18 10:58:54;;;;;;;;;;;17.10;96.80;;;;;;5060997;28;19908;-84
2022/09/18 11:01:22;;;;;;;;;;;16.60;97.40;;;;;;5060869;28;19923;-81
2022/09/18 11:04:01;;;;;;;;;;;16.40;98.00;;;;;;5061168;28;19901;-82
2022/09/18 11:06:30;;;;;;;;;;;16.20;98.30;;;;;;5061160;28;19904;-83
2022/09/18 11:09:07;;;;;;;;;;;16.10;99.10;;;;;;5060782;28;19947;-82
2022/09/18 11:11:34;;;;;;;;;;;16.30;98.90;;;;;;5060894;28;19907;-81
2022/09/18 11:14:17;;;;;;;;;;;16.00;99.30;;;;;;5061007;28;19915;-81
2022/09/18 11:16:57;;;;;;;;;;;16.00;99.90;;;;;;5060801;28;19920;-82
2022/09/18 11:19:34;;;;;;;;;;;17.50;99.50;;;;;;5060465;28;19909;-82
2022/09/18 11:22:25;;;;;;;;;;;20.00;95.60;;;;;;5041975;28;19901;-82
2022/09/18 11:25:05;;;;;;;;;;;22.30;92.60;;;;;;5050220;28;19976;-83
2022/09/18 11:27:42;;;;;;;;;;;22.10;91.70;;;;;;5082547;28;19900;-82
2022/09/18 11:30:34;;;;;;;;;;;21.60;92.10;;;;;;5051384;28;19923;-81
2022/09/18 11:33:03;;;;;;;;;;;20.70;93.10;;;;;;5082167;28;19897;-84
2022/09/18 11:35:30;;;;;;;;;;;19.60;94.00;;;;;;5046651;28;20348;-84
2022/09/18 11:37:57;;;;;;;;;;;18.60;96.00;;;;;;5045480;28;20035;-82
2022/09/18 11:40:25;;;;;;;;;;;17.60;97.70;;;;;;5046554;28;19911;-84
2022/09/18 11:42:52;;;;;;;;;;;17.00;99.80;;;;;;5042132;28;19939;-83
2022/09/18 11:45:19;;;;;;;;;;;16.30;99.90;;;;;;5026993;28;19904;-83
2022/09/18 11:47:46;;;;;;;;;;;15.20;99.90;;;;;;5057293;22;20032;-82
2022/09/18 11:50:19;;;;;;;;;;;14.50;99.90;;;;;;5051849;28;19911;-81
2022/09/18 11:52:58;;;;;;;;;;;14.20;99.90;;;;;;5056066;28;19940;-83
2022/09/18 11:55:35;;;;;;;;;;;14.10;99.90;;;;;;5055975;28;19893;-82
2022/09/18 11:58:10;;;;;;;;;;;15.30;99.90;;;;;;5035835;28;19908;-83
2022/09/18 12:00:44;;;;;;;;;;;18.00;99.90;;;;;;5035880;28;19901;-83
2022/09/18 12:03:30;;;;;;;;;;;20.70;99.90;;;;;;5023423;28;19925;-83
2022/09/18 12:06:01;;;;;;;;;;;22.40;97.00;;;;;;5024033;28;19919;-84
2022/09/18 12:08:50;;;;;;;;;;;24.50;93.10;;;;;;5026309;28;19896;-82
2022/09/18 12:11:38;;;;;;;;;;;25.90;91.70;;;;;;5038907;28;19897;-83
2022/09/18 12:14:04;;;;;;;;;;;27.70;86.00;;;;;;5042887;28;19900;-82
2022/09/18 12:16:49;;;;;;;;;;;28.00;82.60;;;;;;5040660;28;19909;-82
2022/09/18 12:19:32;;;;;;;;;;;27.30;82.50;;;;;;5041172;28;20104;-82
2022/09/18 12:22:15;;;;;;;;;;;26.20;82.90;;;;;;5048497;28;19913;-82
2022/09/18 12:24:42;;;;;;;;;;;25.70;83.30;;;;;;5024189;28;19917;-83
2022/09/18 12:27:08;;;;;;;;;;;25.60;84.20;;;;;;5027631;28;19916;-84
2022/09/18 12:29:34;;;;;;;;;;;24.80;85.70;;;;;;5019443;28;19893;-83
2022/09/18 12:32:24;;;;;;;;;;;24.90;85.90;;;;;;5051328;28;19927;-84
2022/09/18 12:35:13;;;;;;;;;;;24.60;83.70;;;;;;5030228;28;19920;-83
2022/09/18 12:37:39;;;;;;;;;;;23.10;86.90;;;;;;5050262;28;19944;-83
2022/09/18 12:40:15;;;;;;;;;;;22.60;88.70;;;;;;5045550;28;19956;-83
2022/09/18 12:42:46;;;;;;;;;;;23.10;87.40;;;;;;5046976;28;19909;-83
2022/09/18 12:45:18;;;;;;;;;;;22.60;89.00;;;;;;5035166;28;19951;-83
2022/09/18 12:47:50;;;;;;;;;;;21.10;90.80;;;;;;5051154;28;19913;-83
2022/09/18 12:50:16;;;;;;;;;;;20.10;92.70;;;;;;5047122;28;19952;-83
2022/09/18 12:52:42;;;;;;;;;;;18.90;95.60;;;;;;5047878;28;19941;-83
2022/09/18 12:55:17;;;;;;;;;;;17.50;99.90;;;;;;5053330;28;19940;-81
2022/09/18 12:57:50;;;;;;;;;;;16.40;99.90;;;;;;5055714;28;19915;-83
2022/09/18 13:00:16;;;;;;;;;;;15.50;99.90;;;;;;5056900;28;19939;-82
2022/09/18 13:02:49;;;;;;;;;;;15.20;99.90;;;;;;5054893;28;19923;-84
2022/09/18 13:05:20;;;;;;;;;;;15.00;99.90;;;;;;5034253;28;19917;-86
2022/09/18 13:07:55;;;;;;;;;;;14.80;99.90;;;;;;5048094;28;19909;-84
2022/09/18 13:10:28;;;;;;;;;;;14.80;99.90;;;;;;5029124;28;19910;-85
2022/09/18 13:12:54;;;;;;;;;;;14.70;99.90;;;;;;5053728;28;19901;-86
2022/09/18 13:15:22;;;;;;;;;;;14.50;99.90;;;;;;5051352;28;19919;-85
2022/09/18 13:17:50;;;;;;;;;;;14.10;99.90;;;;;;5042011;28;20032;-85
2022/09/18 13:20:18;;;;;;;;;;;14.00;99.90;;;;;;5024964;28;20316;-86
2022/09/18 13:22:45;;;;;;;;;;;13.80;99.90;;;;;;5028145;28;19910;-86
2022/09/18 13:25:37;;;;;;;;;;;13.70;99.90;;;;;;5031533;28;19936;-84
2022/09/18 13:28:06;;;;;;;;;;;13.60;99.90;;;;;;5024279;28;19910;-86
2022/09/18 13:30:32;;;;;;;;;;;13.60;99.90;;;;;;5029365;28;19920;-85
2022/09/18 13:32:58;;;;;;;;;;;13.50;99.90;;;;;;5027477;28;19910;-86
2022/09/18 13:35:35;;;;;;;;;;;13.30;99.90;;;;;;5009918;28;19911;-82
2022/09/18 13:38:02;;;;;;;;;;;13.00;99.90;;;;;;5031625;28;20305;-85
2022/09/18 13:40:34;;;;;;;;;;;12.90;99.90;;;;;;5035061;28;19917;-85
2022/09/18 13:43:12;;;;;;;;;;;12.80;99.90;;;;;;5029475;28;19920;-85
2022/09/18 13:45:38;;;;;;;;;;;12.70;99.90;;;;;;5047994;28;19916;-85
2022/09/18 13:48:05;;;;;;;;;;;13.00;99.90;;;;;;5047617;28;19913;-86
2022/09/18 13:50:32;;;;;;;;;;;13.40;99.90;;;;;;5034594;28;20015;-85
2022/09/18 13:52:59;;;;;;;;;;;13.70;99.90;;;;;;5058617;28;19941;-83
2022/09/18 13:55:26;;;;;;;;;;;13.80;99.90;;;;;;5041572;28;19897;-82
2022/09/18 13:58:11;;;;;;;;;;;13.80;99.90;;;;;;5058647;28;19929;-85
2022/09/18 14:00:39;;;;;;;;;;;13.90;99.90;;;;;;5057511;28;20222;-84
2022/09/18 14:03:05;;;;;;;;;;;13.90;99.90;;;;;;5038170;28;19908;-87
2022/09/18 14:05:32;;;;;;;;;;;14.00;99.90;;;;;;5027793;28;19912;-83
2022/09/18 14:07:59;;;;;;;;;;;14.10;99.90;;;;;;5042788;28;19968;-83
2022/09/18 14:10:26;;;;;;;;;;;14.20;99.90;;;;;;5042346;28;20361;-82
2022/09/18 14:13:11;;;;;;;;;;;14.30;99.90;;;;;;5043036;28;19911;-84
2022/09/18 14:15:37;;;;;;;;;;;14.40;99.90;;;;;;5042022;28;19931;-84
2022/09/18 14:18:23;;;;;;;;;;;14.50;99.90;;;;;;5024954;28;19905;-84
2022/09/18 14:20:51;;;;;;;;;;;14.50;99.90;;;;;;5043238;28;19909;-84
2022/09/18 14:23:35;;;;;;;;;;;14.50;99.90;;;;;;5044007;28;19909;-83
2022/09/18 14:26:06;;;;;;;;;;;14.40;99.90;;;;;;5052298;28;19921;-84
2022/09/18 14:28:32;;;;;;;;;;;14.40;99.90;;;;;;5042299;28;19936;-83
2022/09/18 14:31:16;;;;;;;;;;;14.50;99.90;;;;;;5043088;28;19905;-82
2022/09/18 14:33:42;;;;;;;;;;;14.40;99.90;;;;;;5041546;28;19932;-83
2022/09/18 14:36:10;;;;;;;;;;;14.30;99.90;;;;;;5043538;28;19905;-83
2022/09/18 14:38:39;;;;;;;;;;;14.30;99.90;;;;;;5024671;28;19913;-82
2022/09/18 14:41:14;;;;;;;;;;;14.40;99.90;;;;;;5048164;28;19932;-84
2022/09/18 14:43:46;;;;;;;;;;;14.50;99.90;;;;;;5047120;28;19917;-83